Terminal Aerodrome Forecast
Issued by NWS

Home | Current Version | Previous Version | Text Only | Print | Product List | Glossary On
Versions: 1 2 3 4 5 6 7 8 9 10 11 12 13 14 15 16 17 18 19 20
372
FTUS41 KBTV 240522 CCA
TAFSLK
TAF COR
KSLK 240522Z 2406/2506 00000KT P6SM BKN090
      TEMPO 2406/2409 1 1/2SM BR SCT001
     FM241900 02004KT P6SM VCSH BKN060
     FM242100 06005KT P6SM BKN045=

USA.gov is the U.S. government's official web portal to all federal, state and local government web resources and services.